Buoy 41580

sailwx.info

Track history (hours):
 
Tides and Currents Weather Stations Pressure Air Temp Water Temp Dewpoint Dewpoint Depression Visibility Wind Speed Wind Dir Waves Ship Positions

Drifting buoy 41580

Last reported at 2014-Jun-03 23:30 UTC. Time now 2014-Oct-01 06:03 UTC.
Position N 25°46' W 063°15'.
Warning: this ship's position is months out of date.

Date/timePositionNaut miles runAvg speedWind from/ knotsBaromVisibWave heightAir tempDewpointWater temp
2014-Jun-03 23:30N 25°46' W 063°15'0 0.4
2014-Jun-03 23:00N 25°46' W 063°15'0 0.4
2014-Jun-03 22:30N 25°46' W 063°15'0 0.4
2014-Jun-03 22:00N 25°45' W 063°15'1 0.5
2014-Jun-03 20:00N 25°45' W 063°14'0 0.3
2014-Jun-03 19:30N 25°45' W 063°14'2 0.1
2014-Jun-02 23:30N 25°46' W 063°13'0 0.5
2014-Jun-02 23:00N 25°46' W 063°13'6 0.5
2014-Jun-02 12:00N 25°43' W 063°08'2 0.1
2014-Jun-01 21:00N 25°42' W 063°06'0 0.6
2014-Jun-01 20:30N 25°41' W 063°06'7 0.4
2014-Jun-01 03:30N 25°35' W 063°05'0 0.2
2014-Jun-01 03:00N 25°35' W 063°05'1 0.3
2014-Jun-01 00:00N 25°34' W 063°05'0 0.4
2014-May-31 23:00N 25°33' W 063°05'1 0.4
2014-May-31 21:00N 25°33' W 063°05'0 0.5
2014-May-31 20:30N 25°32' W 063°05'0 0.5
2014-May-31 20:00N 25°32' W 063°05'6 0.6
2014-May-31 09:30N 25°26' W 063°03'0 0.6
2014-May-31 09:00N 25°26' W 063°03'1 0.6
2014-May-31 07:30N 25°25' W 063°02'0 0.6
2014-May-31 07:00N 25°25' W 063°02'3 0.6
2014-May-31 02:00N 25°22' W 063°00'0 0.5
2014-May-31 01:30N 25°22' W 063°00'0 0.5
2014-May-31 01:00N 25°22' W 063°00'0 0.6
2014-May-31 00:30N 25°21' W 063°00'0 0.6
2014-May-31 00:00N 25°21' W 063°00'0 0.6
2014-May-30 23:30N 25°21' W 063°00'4 0.8
2014-May-30 19:00N 25°18' W 062°59'6 0.6
2014-May-30 09:30N 25°11' W 062°58'0 1.0
2014-May-30 09:00N 25°11' W 062°58'4 1.0
2014-May-30 05:00N 25°07' W 062°56'2 0.7
2014-May-30 02:00N 25°05' W 062°55'1 0.5
2014-May-30 00:30N 25°05' W 062°54'0 0.5
2014-May-30 00:00N 25°05' W 062°54'0 0.5
2014-May-29 23:30N 25°04' W 062°54'1 0.6
2014-May-29 22:30N 25°04' W 062°54'0 0.6
2014-May-29 22:00N 25°03' W 062°54'1 0.9
2014-May-29 20:30N 25°02' W 062°55'0 1.0
2014-May-29 20:00N 25°02' W 062°55'0 1.0
2014-May-29 19:30N 25°01' W 062°55'0 1.0
2014-May-29 19:00N 25°01' W 062°55'14 0.9
2014-May-29 02:30N 24°46' W 062°56'0 0.8
2014-May-29 02:00N 24°46' W 062°57'1 0.9
2014-May-29 01:00N 24°45' W 062°57'0 0.7
2014-May-29 00:30N 24°45' W 062°57'0 0.8
2014-May-29 00:00N 24°45' W 062°58'1 0.8
2014-May-28 23:00N 24°44' W 062°58'1 0.6
2014-May-28 21:00N 24°43' W 062°59'2 0.8
2014-May-28 19:00N 24°43' W 063°01'1 0.9
2014-May-28 17:30N 24°43' W 063°03'0 1.0
2014-May-28 17:00N 24°43' W 063°03'3 1.0
2014-May-28 13:30N 24°44' W 063°07'1 1.1
2014-May-28 13:00N 24°44' W 063°07'3 1.1
2014-May-28 10:00N 24°45' W 063°11'1 1.1
2014-May-28 09:30N 24°45' W 063°11'1 1.1
2014-May-28 09:00N 24°46' W 063°12'0 1.0
2014-May-28 08:30N 24°46' W 063°12'1 1.1
2014-May-28 08:00N 24°46' W 063°13'2 1.0
2014-May-28 05:30N 24°48' W 063°15'0 1.0
2014-May-28 05:00N 24°48' W 063°15'4 1.1
2014-May-28 01:30N 24°51' W 063°18'1 1.2
2014-May-28 01:00N 24°52' W 063°18'1 1.2
2014-May-28 00:30N 24°52' W 063°19'1 1.2
2014-May-28 00:00N 24°53' W 063°19'3 1.2
2014-May-27 21:30N 24°55' W 063°21'1 1.2
2014-May-27 21:00N 24°56' W 063°21'4 1.2
2014-May-27 18:00N 24°59' W 063°24'1 1.2
2014-May-27 17:30N 24°59' W 063°24'3 1.3
2014-May-27 15:00N 25°02' W 063°26'2 1.3
2014-May-27 13:30N 25°03' W 063°27'1 1.2
2014-May-27 13:00N 25°04' W 063°27'1 1.3
2014-May-27 12:30N 25°04' W 063°28'1 1.3
2014-May-27 12:00N 25°05' W 063°28'1 1.2
2014-May-27 11:00N 25°06' W 063°29'1 1.0
2014-May-27 10:00N 25°07' W 063°30'1 1.1
2014-May-27 09:30N 25°07' W 063°30'1 1.0
2014-May-27 09:00N 25°08' W 063°30'1 1.1
2014-May-27 08:30N 25°08' W 063°30'1 1.0
2014-May-27 08:00N 25°09' W 063°31'0 0.9
2014-May-27 07:30N 25°09' W 063°31'0 0.9
2014-May-27 07:00N 25°09' W 063°31'0 0.9
2014-May-27 06:30N 25°10' W 063°31'0 0.9
2014-May-27 06:00N 25°10' W 063°31'0 1.0
2014-May-27 05:30N 25°11' W 063°32'0 0.9
2014-May-27 05:00N 25°11' W 063°32'2 0.9
2014-May-27 03:00N 25°13' W 063°32'1 1.0
2014-May-27 02:00N 25°14' W 063°32'0 0.8
2014-May-27 01:30N 25°14' W 063°33'0 1.0
2014-May-27 01:00N 25°15' W 063°33'1 1.0
2014-May-27 00:00N 25°16' W 063°33'2 1.0
2014-May-26 22:30N 25°17' W 063°33'1 1.1
2014-May-26 22:00N 25°18' W 063°33'1 1.1
2014-May-26 21:30N 25°18' W 063°33'1 1.1
2014-May-26 21:00N 25°19' W 063°33'1 1.1
2014-May-26 20:00N 25°20' W 063°34'3 1.0
2014-May-26 17:00N 25°22' W 063°36'1 0.8
2014-May-26 15:30N 25°23' W 063°37'0 0.6
2014-May-26 15:00N 25°23' W 063°37'3 0.6
2014-May-26 10:30N 25°26' W 063°38'0 0.6
2014-May-26 10:00N 25°26' W 063°38'0 0.6
2014-May-26 09:30N 25°27' W 063°38'0 0.6
2014-May-26 09:00N 25°27' W 063°38'0 0.6
2014-May-26 08:30N 25°27' W 063°38'0 0.6
2014-May-26 08:00N 25°27' W 063°39'0 0.7
2014-May-26 07:30N 25°28' W 063°39'0 0.6
2014-May-26 07:00N 25°28' W 063°39'0 0.6
2014-May-26 06:30N 25°28' W 063°39'0 0.5
2014-May-26 06:00N 25°29' W 063°39'3 0.7
2014-May-26 02:00N 25°31' W 063°40'0 1.0
2014-May-26 01:30N 25°32' W 063°40'0 0.9
2014-May-26 01:00N 25°32' W 063°40'5 1.0
2014-May-25 20:30N 25°36' W 063°42'1 1.0
2014-May-25 20:00N 25°37' W 063°43'1 1.0
2014-May-25 19:30N 25°37' W 063°43'1 1.1
2014-May-25 19:00N 25°37' W 063°44'0 1.0
2014-May-25 18:30N 25°38' W 063°44'0 1.0
2014-May-25 18:00N 25°38' W 063°45'0 0.8
2014-May-25 17:30N 25°38' W 063°45'0 0.9
2014-May-25 17:00N 25°39' W 063°45'2 0.8
2014-May-25 15:00N 25°39' W 063°47'1 0.7
2014-May-25 14:00N 25°40' W 063°47'2 0.7
2014-May-25 11:00N 25°42' W 063°49'0 0.6
2014-May-25 10:30N 25°42' W 063°49'0 0.8
2014-May-25 10:00N 25°42' W 063°49'0 0.6
2014-May-25 09:30N 25°42' W 063°49'0 0.7
2014-May-25 09:00N 25°43' W 063°50'0 0.5
2014-May-25 08:30N 25°43' W 063°50'0 0.6
2014-May-25 08:00N 25°43' W 063°50'1 0.6
2014-May-25 07:00N 25°44' W 063°50'0 0.6
2014-May-25 06:30N 25°44' W 063°50'0 0.7
2014-May-25 06:00N 25°44' W 063°51'3 0.6
2014-May-25 01:30N 25°47' W 063°52'0 0.7
2014-May-25 01:00N 25°47' W 063°53'0 0.6
2014-May-25 00:30N 25°47' W 063°53'0 0.8
2014-May-25 00:00N 25°48' W 063°53'0 0.8
2014-May-24 23:30N 25°48' W 063°53'  
Track history (hours):
 
Tides and Currents Weather Stations Pressure Air Temp Water Temp Dewpoint Dewpoint Depression Visibility Wind Speed Wind Dir Waves Ship Positions

Drifting buoy 41580

Last reported at 2014-Jun-03 23:30 UTC. Time now 2014-Oct-01 06:03 UTC.
Position N 25°46' W 063°15'.
Warning: this ship's position is months out of date.

Date/timePositionNaut miles runAvg speedWind from/ knotsBaromVisibWave heightAir tempDewpointWater temp
2014-Jun-03 23:30N 25°46' W 063°15'0 0.4
2014-Jun-03 23:00N 25°46' W 063°15'0 0.4
2014-Jun-03 22:30N 25°46' W 063°15'0 0.4
2014-Jun-03 22:00N 25°45' W 063°15'1 0.5
2014-Jun-03 20:00N 25°45' W 063°14'0 0.3
2014-Jun-03 19:30N 25°45' W 063°14'2 0.1
2014-Jun-02 23:30N 25°46' W 063°13'0 0.5
2014-Jun-02 23:00N 25°46' W 063°13'6 0.5
2014-Jun-02 12:00N 25°43' W 063°08'2 0.1
2014-Jun-01 21:00N 25°42' W 063°06'0 0.6
2014-Jun-01 20:30N 25°41' W 063°06'7 0.4
2014-Jun-01 03:30N 25°35' W 063°05'0 0.2
2014-Jun-01 03:00N 25°35' W 063°05'1 0.3
2014-Jun-01 00:00N 25°34' W 063°05'0 0.4
2014-May-31 23:00N 25°33' W 063°05'1 0.4
2014-May-31 21:00N 25°33' W 063°05'0 0.5
2014-May-31 20:30N 25°32' W 063°05'0 0.5
2014-May-31 20:00N 25°32' W 063°05'6 0.6
2014-May-31 09:30N 25°26' W 063°03'0 0.6
2014-May-31 09:00N 25°26' W 063°03'1 0.6
2014-May-31 07:30N 25°25' W 063°02'0 0.6
2014-May-31 07:00N 25°25' W 063°02'3 0.6
2014-May-31 02:00N 25°22' W 063°00'0 0.5
2014-May-31 01:30N 25°22' W 063°00'0 0.5
2014-May-31 01:00N 25°22' W 063°00'0 0.6
2014-May-31 00:30N 25°21' W 063°00'0 0.6
2014-May-31 00:00N 25°21' W 063°00'0 0.6
2014-May-30 23:30N 25°21' W 063°00'4 0.8
2014-May-30 19:00N 25°18' W 062°59'6 0.6
2014-May-30 09:30N 25°11' W 062°58'0 1.0
2014-May-30 09:00N 25°11' W 062°58'4 1.0
2014-May-30 05:00N 25°07' W 062°56'2 0.7
2014-May-30 02:00N 25°05' W 062°55'1 0.5
2014-May-30 00:30N 25°05' W 062°54'0 0.5
2014-May-30 00:00N 25°05' W 062°54'0 0.5
2014-May-29 23:30N 25°04' W 062°54'1 0.6
2014-May-29 22:30N 25°04' W 062°54'0 0.6
2014-May-29 22:00N 25°03' W 062°54'1 0.9
2014-May-29 20:30N 25°02' W 062°55'0 1.0
2014-May-29 20:00N 25°02' W 062°55'0 1.0
2014-May-29 19:30N 25°01' W 062°55'0 1.0
2014-May-29 19:00N 25°01' W 062°55'14 0.9
2014-May-29 02:30N 24°46' W 062°56'0 0.8
2014-May-29 02:00N 24°46' W 062°57'1 0.9
2014-May-29 01:00N 24°45' W 062°57'0 0.7
2014-May-29 00:30N 24°45' W 062°57'0 0.8
2014-May-29 00:00N 24°45' W 062°58'1 0.8
2014-May-28 23:00N 24°44' W 062°58'1 0.6
2014-May-28 21:00N 24°43' W 062°59'2 0.8
2014-May-28 19:00N 24°43' W 063°01'1 0.9
2014-May-28 17:30N 24°43' W 063°03'0 1.0
2014-May-28 17:00N 24°43' W 063°03'3 1.0
2014-May-28 13:30N 24°44' W 063°07'1 1.1
2014-May-28 13:00N 24°44' W 063°07'3 1.1
2014-May-28 10:00N 24°45' W 063°11'1 1.1
2014-May-28 09:30N 24°45' W 063°11'1 1.1
2014-May-28 09:00N 24°46' W 063°12'0 1.0
2014-May-28 08:30N 24°46' W 063°12'1 1.1
2014-May-28 08:00N 24°46' W 063°13'2 1.0
2014-May-28 05:30N 24°48' W 063°15'0 1.0
2014-May-28 05:00N 24°48' W 063°15'4 1.1
2014-May-28 01:30N 24°51' W 063°18'1 1.2
2014-May-28 01:00N 24°52' W 063°18'1 1.2
2014-May-28 00:30N 24°52' W 063°19'1 1.2
2014-May-28 00:00N 24°53' W 063°19'3 1.2
2014-May-27 21:30N 24°55' W 063°21'1 1.2
2014-May-27 21:00N 24°56' W 063°21'4 1.2
2014-May-27 18:00N 24°59' W 063°24'1 1.2
2014-May-27 17:30N 24°59' W 063°24'3 1.3
2014-May-27 15:00N 25°02' W 063°26'2 1.3
2014-May-27 13:30N 25°03' W 063°27'1 1.2
2014-May-27 13:00N 25°04' W 063°27'1 1.3
2014-May-27 12:30N 25°04' W 063°28'1 1.3
2014-May-27 12:00N 25°05' W 063°28'1 1.2
2014-May-27 11:00N 25°06' W 063°29'1 1.0
2014-May-27 10:00N 25°07' W 063°30'1 1.1
2014-May-27 09:30N 25°07' W 063°30'1 1.0
2014-May-27 09:00N 25°08' W 063°30'1 1.1
2014-May-27 08:30N 25°08' W 063°30'1 1.0
2014-May-27 08:00N 25°09' W 063°31'0 0.9
2014-May-27 07:30N 25°09' W 063°31'0 0.9
2014-May-27 07:00N 25°09' W 063°31'0 0.9
2014-May-27 06:30N 25°10' W 063°31'0 0.9
2014-May-27 06:00N 25°10' W 063°31'0 1.0
2014-May-27 05:30N 25°11' W 063°32'0 0.9
2014-May-27 05:00N 25°11' W 063°32'2 0.9
2014-May-27 03:00N 25°13' W 063°32'1 1.0
2014-May-27 02:00N 25°14' W 063°32'0 0.8
2014-May-27 01:30N 25°14' W 063°33'0 1.0
2014-May-27 01:00N 25°15' W 063°33'1 1.0
2014-May-27 00:00N 25°16' W 063°33'2 1.0
2014-May-26 22:30N 25°17' W 063°33'1 1.1
2014-May-26 22:00N 25°18' W 063°33'1 1.1
2014-May-26 21:30N 25°18' W 063°33'1 1.1
2014-May-26 21:00N 25°19' W 063°33'1 1.1
2014-May-26 20:00N 25°20' W 063°34'3 1.0
2014-May-26 17:00N 25°22' W 063°36'1 0.8
2014-May-26 15:30N 25°23' W 063°37'0 0.6
2014-May-26 15:00N 25°23' W 063°37'3 0.6
2014-May-26 10:30N 25°26' W 063°38'0 0.6
2014-May-26 10:00N 25°26' W 063°38'0 0.6
2014-May-26 09:30N 25°27' W 063°38'0 0.6
2014-May-26 09:00N 25°27' W 063°38'0 0.6
2014-May-26 08:30N 25°27' W 063°38'0 0.6
2014-May-26 08:00N 25°27' W 063°39'0 0.7
2014-May-26 07:30N 25°28' W 063°39'0 0.6
2014-May-26 07:00N 25°28' W 063°39'0 0.6
2014-May-26 06:30N 25°28' W 063°39'0 0.5
2014-May-26 06:00N 25°29' W 063°39'3 0.7
2014-May-26 02:00N 25°31' W 063°40'0 1.0
2014-May-26 01:30N 25°32' W 063°40'0 0.9
2014-May-26 01:00N 25°32' W 063°40'5 1.0
2014-May-25 20:30N 25°36' W 063°42'1 1.0
2014-May-25 20:00N 25°37' W 063°43'1 1.0
2014-May-25 19:30N 25°37' W 063°43'1 1.1
2014-May-25 19:00N 25°37' W 063°44'0 1.0
2014-May-25 18:30N 25°38' W 063°44'0 1.0
2014-May-25 18:00N 25°38' W 063°45'0 0.8
2014-May-25 17:30N 25°38' W 063°45'0 0.9
2014-May-25 17:00N 25°39' W 063°45'2 0.8
2014-May-25 15:00N 25°39' W 063°47'1 0.7
2014-May-25 14:00N 25°40' W 063°47'2 0.7
2014-May-25 11:00N 25°42' W 063°49'0 0.6
2014-May-25 10:30N 25°42' W 063°49'0 0.8
2014-May-25 10:00N 25°42' W 063°49'0 0.6
2014-May-25 09:30N 25°42' W 063°49'0 0.7
2014-May-25 09:00N 25°43' W 063°50'0 0.5
2014-May-25 08:30N 25°43' W 063°50'0 0.6
2014-May-25 08:00N 25°43' W 063°50'1 0.6
2014-May-25 07:00N 25°44' W 063°50'0 0.6
2014-May-25 06:30N 25°44' W 063°50'0 0.7
2014-May-25 06:00N 25°44' W 063°51'3 0.6
2014-May-25 01:30N 25°47' W 063°52'0 0.7
2014-May-25 01:00N 25°47' W 063°53'0 0.6
2014-May-25 00:30N 25°47' W 063°53'0 0.8
2014-May-25 00:00N 25°48' W 063°53'0 0.8
2014-May-24 23:30N 25°48' W 063°53'  

Dump ship's entire track history